Piedmont, Alabama
Current Conditions -  °F | °C
As of 11:53 PM on Saturday 25 Oct 2014 (Local Time) from KANB Reporting Station
Clear Clear  
Wind Chill: 54°   Ceiling: Unl
Heat Index: 54°   Visibility: 9mi
Dew Point: 52°   Wind: 3mph
Humidity: 93%   Direction: 130°SE
Pressure: 30.06"   Gusts: NA
Location:  33.92°N, 85.61°W
Report Text: KANB 260453Z AUTO 13003KT 9SM CLR 12/11 A3006 RMK AO2 SLP176 T01220111
Loading
Personal Weather Stations






























Interactive Weather Map
Tropical Storm Tracking
New forecast layout! Learn more

10-Day Weather Forecast

Advertisements
Track Severe Weather on mobile